METAR Data
IDs: Format: Raw Decoded Include TAF

Data at: 2142 UTC 25 Apr 2019

METAR for:KELA (Eagle Lake Arpt, TX, US)
Text:KELA 252135Z AUTO 29008KT 10SM CLR 28/15 A2985 RMK AO2 T02800153
Temperature: 28.0°C ( 82°F)
Dewpoint: 15.3°C ( 60°F) [RH = 46%]
Pressure (altimeter):29.85 inches Hg (1010.9 mb)
Winds:from the WNW (290 degrees) at 9 MPH (8 knots; 4.1 m/s)
Visibility:10 or more sm (16+ km)
Ceiling:at least 12,000 feet AGL
Clouds:sky clear below 12,000 feet AGL
QC Flag:automated observation with no human augmentation

TAF for:KELA (Eagle Lake Arpt, TX, US)
Text:No data found